Terminal Aerodrome Forecast
Issued by NWS

Home | Current Version | Previous Version | Text Only | Print | Product List | Glossary On
Versions: 1 2 3 4 5 6 7 8 9 10 11 12 13 14 15 16 17 18
000
FTAK31 PANC 060531
TAFAIL
TAF
PAIL 060531Z 0606/0706 02009KT 5SM -SHSN SCT025 BKN035
      TEMPO 0606/0609 3SM -SHSN BR BKN025
     FM061200 36008KT P6SM VCSH SCT025 BKN040
     FM062000 34006KT P6SM SCT030 BKN060=

USA.gov is the U.S. government's official web portal to all federal, state and local government web resources and services.